Grande Pointe, Florida
Current Conditions -  °F | °C
As of 6:53 PM on Sunday 23 Nov 2014 (Local Time) from KECP Reporting Station
Light Rain Light Rain  
Wind Chill: 66°   Ceiling: 300
Heat Index: 66°   Visibility: 1mi
Dew Point: 64°   Wind: 7mph
Humidity: 93%   Direction: 160°SSE
Pressure: 29.79"   Gusts: NA
Location:  30.3525°N, 85.9093°W
Report Text: KECP 240053Z 16006KT 1SM -RA BR OVC003 19/18 A2979 RMK AO2 SLP101 T01890178 PNO $
Loading
Personal Weather Stations






























Interactive Weather Map New forecast layout! Learn more

10-Day Weather Forecast

Advertisements
Track Severe Weather on mobile